createdAt,value
2022-07-28T00:01:52.705Z,49.93
2022-07-28T00:04:21.858Z,49.91
2022-07-28T00:06:50.109Z,49.84
2022-07-28T00:09:21.273Z,50.09
2022-07-28T00:11:50.384Z,50.04
2022-07-28T00:14:28.247Z,50.09
2022-07-28T00:16:56.992Z,50.15
2022-07-28T00:19:27.615Z,50.33
2022-07-28T00:21:56.180Z,50.41
2022-07-28T00:24:26.672Z,50.27
2022-07-28T00:26:55.472Z,50.30
2022-07-28T00:29:26.182Z,50.37
2022-07-28T00:32:14.682Z,50.52
2022-07-28T00:34:43.169Z,50.33
2022-07-28T00:37:14.583Z,50.62
2022-07-28T00:39:43.406Z,50.50
2022-07-28T00:42:12.386Z,50.50
2022-07-28T00:44:42.763Z,50.55
2022-07-28T00:47:13.049Z,50.38
2022-07-28T00:49:42.027Z,50.46
2022-07-28T00:52:15.091Z,50.66
2022-07-28T00:54:43.308Z,50.49
2022-07-28T00:57:11.565Z,50.47
2022-07-28T00:59:41.714Z,50.41
2022-07-28T01:02:13.766Z,50.71
2022-07-28T01:04:42.720Z,50.70
2022-07-28T01:07:21.217Z,50.65
2022-07-28T01:09:58.198Z,50.73
2022-07-28T01:12:38.958Z,50.76
2022-07-28T01:15:17.151Z,50.85
2022-07-28T01:17:55.247Z,50.68
2022-07-28T01:20:32.771Z,50.74
2022-07-28T01:23:35.593Z,50.92
2022-07-28T01:26:21.102Z,50.88
2022-07-28T01:29:04.708Z,50.99
2022-07-28T01:31:40.950Z,51.01
2022-07-28T01:34:14.980Z,51.23
2022-07-28T01:36:47.727Z,51.08
2022-07-28T01:39:19.122Z,50.90
2022-07-28T01:41:51.183Z,51.07
2022-07-28T01:44:25.253Z,51.00
2022-07-28T01:46:58.107Z,51.05
2022-07-28T01:49:29.327Z,50.88
2022-07-28T01:52:00.631Z,50.90
2022-07-28T01:54:32.455Z,50.68
2022-07-28T01:57:04.557Z,51.07
2022-07-28T01:59:34.676Z,51.07
2022-07-28T02:02:06.698Z,51.05
2022-07-28T02:04:37.693Z,51.09
2022-07-28T02:07:08.367Z,50.92
2022-07-28T02:09:38.257Z,51.19
2022-07-28T02:12:11.610Z,51.17
2022-07-28T02:14:40.680Z,51.20
2022-07-28T02:17:14.985Z,51.41
2022-07-28T02:19:47.360Z,51.55
2022-07-28T02:22:17.878Z,51.39
2022-07-28T02:24:47.390Z,51.73
2022-07-28T02:27:21.032Z,51.71
2022-07-28T02:29:53.006Z,51.80
2022-07-28T02:32:31.465Z,51.91
2022-07-28T02:35:10.686Z,51.57
2022-07-28T02:37:43.118Z,52.11
2022-07-28T02:40:16.004Z,52.06
2022-07-28T02:42:48.584Z,51.65
2022-07-28T02:45:22.625Z,51.46
2022-07-28T02:47:57.431Z,51.56
2022-07-28T02:50:29.121Z,52.00
2022-07-28T02:53:15.159Z,51.79
2022-07-28T02:55:48.929Z,51.72
2022-07-28T02:58:19.908Z,51.57
2022-07-28T03:00:49.558Z,51.54
2022-07-28T03:03:20.761Z,51.56
2022-07-28T03:05:50.262Z,51.50
2022-07-28T03:08:18.980Z,51.51
2022-07-28T03:10:47.446Z,51.52
2022-07-28T03:13:15.764Z,51.39
2022-07-28T03:15:46.953Z,51.37
2022-07-28T03:18:15.293Z,51.37
2022-07-28T03:20:45.385Z,51.32
2022-07-28T03:23:13.784Z,51.29
2022-07-28T03:25:48.374Z,51.17
2022-07-28T03:28:20.115Z,51.30
2022-07-28T03:30:53.910Z,51.22
2022-07-28T03:33:22.349Z,51.23
2022-07-28T03:35:54.949Z,51.15
2022-07-28T03:38:27.148Z,51.19
2022-07-28T03:40:58.928Z,51.19
2022-07-28T03:43:29.119Z,51.28
2022-07-28T03:45:57.411Z,51.35
2022-07-28T03:48:30.540Z,51.43
2022-07-28T03:51:00.611Z,51.50
2022-07-28T03:53:30.369Z,51.62
2022-07-28T03:55:59.052Z,51.45
2022-07-28T03:58:29.203Z,51.57
2022-07-28T04:00:58.811Z,51.60
2022-07-28T04:03:42.890Z,51.52
2022-07-28T04:06:15.421Z,51.61
2022-07-28T04:08:44.555Z,51.71
2022-07-28T04:11:16.565Z,51.85
2022-07-28T04:13:44.920Z,51.84
2022-07-28T04:16:13.302Z,51.73
2022-07-28T04:18:42.397Z,51.98
2022-07-28T04:21:11.160Z,51.95
2022-07-28T04:23:41.192Z,51.70
2022-07-28T04:26:10.796Z,51.74
2022-07-28T04:28:41.710Z,51.85
2022-07-28T04:31:10.391Z,51.85
2022-07-28T04:33:39.512Z,51.43
2022-07-28T04:36:08.094Z,51.55
2022-07-28T04:38:38.952Z,51.79
2022-07-28T04:41:08.866Z,51.93
2022-07-28T04:43:38.128Z,51.75
2022-07-28T04:46:06.725Z,51.71
2022-07-28T04:48:35.141Z,51.85
2022-07-28T04:51:03.605Z,51.80
2022-07-28T04:53:32.529Z,51.94
2022-07-28T04:56:00.776Z,52.02
2022-07-28T04:58:32.881Z,52.00
2022-07-28T05:01:01.391Z,52.00
2022-07-28T05:03:35.728Z,51.92
2022-07-28T05:06:05.161Z,52.14
2022-07-28T05:08:33.503Z,52.10
2022-07-28T05:11:02.114Z,52.12
2022-07-28T05:13:34.264Z,52.08
2022-07-28T05:16:03.089Z,51.63
2022-07-28T05:18:33.585Z,52.11
2022-07-28T05:21:02.226Z,52.03
2022-07-28T05:23:30.633Z,51.94
2022-07-28T05:26:07.509Z,52.22
2022-07-28T05:28:46.380Z,52.14
2022-07-28T05:31:15.393Z,52.13
2022-07-28T05:33:43.829Z,52.33
2022-07-28T05:36:13.646Z,52.12
2022-07-28T05:38:42.299Z,51.97
2022-07-28T05:41:10.693Z,51.99
2022-07-28T05:43:40.610Z,52.04
2022-07-28T05:46:09.027Z,52.01
2022-07-28T05:48:37.518Z,52.02
2022-07-28T05:51:07.255Z,51.99
2022-07-28T05:53:35.662Z,52.12
2022-07-28T05:56:04.257Z,52.03
2022-07-28T05:58:33.104Z,52.00
2022-07-28T06:01:03.662Z,52.13
2022-07-28T06:03:41.454Z,52.10
2022-07-28T06:06:16.304Z,51.99
2022-07-28T06:08:47.381Z,52.01
2022-07-28T06:11:21.911Z,52.14
2022-07-28T06:13:52.599Z,51.85
2022-07-28T06:16:24.476Z,51.92
2022-07-28T06:18:53.226Z,51.88
2022-07-28T06:21:24.625Z,52.02
2022-07-28T06:23:53.118Z,52.01
2022-07-28T06:26:23.594Z,52.04
2022-07-28T06:28:52.614Z,51.93
2022-07-28T06:31:22.491Z,52.31
2022-07-28T06:33:51.070Z,52.01
2022-07-28T06:36:19.527Z,51.93
2022-07-28T06:38:48.029Z,51.77
2022-07-28T06:41:16.589Z,51.70
2022-07-28T06:43:45.324Z,51.52
2022-07-28T06:46:18.724Z,51.87
2022-07-28T06:48:48.724Z,51.65
2022-07-28T06:51:19.915Z,51.89
2022-07-28T06:53:49.569Z,51.91
2022-07-28T06:56:20.222Z,51.88
2022-07-28T06:58:50.058Z,51.83
2022-07-28T07:01:18.426Z,51.84
2022-07-28T07:03:46.738Z,51.77
2022-07-28T07:06:17.035Z,51.70
2022-07-28T07:08:47.300Z,51.80
2022-07-28T07:11:17.624Z,51.80
2022-07-28T07:13:46.015Z,51.86
2022-07-28T07:16:15.563Z,51.90
2022-07-28T07:18:48.622Z,51.91
2022-07-28T07:21:20.331Z,51.63
2022-07-28T07:23:51.259Z,51.89
2022-07-28T07:26:19.577Z,51.64
2022-07-28T07:28:48.077Z,51.43
2022-07-28T07:31:18.745Z,51.52
2022-07-28T07:33:50.223Z,51.48
2022-07-28T07:36:22.027Z,51.61
2022-07-28T07:38:51.752Z,51.37
2022-07-28T07:41:22.030Z,50.99
2022-07-28T07:43:51.599Z,51.11
2022-07-28T07:46:23.201Z,51.27
2022-07-28T07:48:54.334Z,51.14
2022-07-28T07:51:24.755Z,50.94
2022-07-28T07:53:55.996Z,50.89
2022-07-28T07:56:27.346Z,50.75
2022-07-28T07:58:57.251Z,50.73
2022-07-28T08:01:28.130Z,50.64
2022-07-28T08:03:59.993Z,50.62
2022-07-28T08:06:31.346Z,50.47
2022-07-28T08:09:01.135Z,50.48
2022-07-28T08:11:30.010Z,50.13
2022-07-28T08:13:59.425Z,49.43
2022-07-28T08:16:28.339Z,48.93
2022-07-28T08:18:58.503Z,48.33
2022-07-28T08:21:27.183Z,48.36
2022-07-28T08:23:59.437Z,47.77
2022-07-28T08:26:29.997Z,47.53
2022-07-28T08:29:00.492Z,47.19
2022-07-28T08:31:29.449Z,47.12
2022-07-28T08:33:58.723Z,46.97
2022-07-28T08:36:27.879Z,46.66
2022-07-28T08:38:58.473Z,46.00
2022-07-28T08:41:57.915Z,45.54
2022-07-28T08:44:33.288Z,45.34
2022-07-28T08:47:08.038Z,44.89
2022-07-28T08:49:40.365Z,44.34
2022-07-28T08:52:12.464Z,44.09
2022-07-28T08:54:46.432Z,43.78
2022-07-28T08:57:18.939Z,43.62
2022-07-28T08:59:50.853Z,43.75
2022-07-28T09:02:20.839Z,43.44
2022-07-28T09:04:51.825Z,43.27
2022-07-28T09:07:20.798Z,43.07
2022-07-28T09:09:52.163Z,42.59
2022-07-28T09:12:26.747Z,42.45
2022-07-28T09:14:59.464Z,42.11
2022-07-28T09:17:28.056Z,41.47
2022-07-28T09:19:57.812Z,41.31
2022-07-28T09:22:27.232Z,41.08
2022-07-28T09:24:57.420Z,41.06
2022-07-28T09:27:28.639Z,40.88
2022-07-28T09:30:23.512Z,40.61
2022-07-28T09:33:44.141Z,41.29
2022-07-28T09:36:23.107Z,40.97
2022-07-28T09:39:12.070Z,40.98
2022-07-28T09:48:13.490Z,40.12
2022-07-28T09:50:58.843Z,40.42
2022-07-28T09:53:43.201Z,40.62
2022-07-28T09:56:13.407Z,40.13
2022-07-28T09:58:43.888Z,39.87
2022-07-28T10:01:16.866Z,39.93
2022-07-28T10:03:52.175Z,40.00
2022-07-28T10:06:31.448Z,39.39
2022-07-28T10:09:02.777Z,39.31
2022-07-28T10:11:41.332Z,38.89
2022-07-28T10:14:14.052Z,39.30
2022-07-28T10:17:06.507Z,39.15
2022-07-28T10:19:37.166Z,38.75
2022-07-28T10:25:14.578Z,38.02
2022-07-28T10:27:47.143Z,38.21
2022-07-28T10:30:16.898Z,38.34
2022-07-28T10:32:51.904Z,38.11
2022-07-28T10:35:21.201Z,38.08
2022-07-28T10:37:55.815Z,38.00
2022-07-28T10:40:30.048Z,37.89
2022-07-28T10:42:59.862Z,37.76
2022-07-28T10:45:47.964Z,37.58
2022-07-28T10:48:23.667Z,37.18
2022-07-28T10:50:56.985Z,36.77
2022-07-28T10:53:37.305Z,36.94
2022-07-28T10:56:18.741Z,37.11
2022-07-28T10:59:02.808Z,37.07
2022-07-28T11:01:53.143Z,37.01
2022-07-28T11:05:01.818Z,37.09
2022-07-28T11:07:41.141Z,37.27
2022-07-28T11:10:21.689Z,37.35
2022-07-28T11:13:01.600Z,37.84
2022-07-28T11:15:39.078Z,37.43
2022-07-28T11:18:11.198Z,38.01
2022-07-28T11:21:09.554Z,37.48
2022-07-28T11:24:10.566Z,37.49
2022-07-28T11:27:02.348Z,37.46
2022-07-28T11:29:47.996Z,37.91
2022-07-28T11:32:23.520Z,37.18
2022-07-28T11:35:36.141Z,37.53
2022-07-28T11:38:15.944Z,37.92
2022-07-28T11:40:47.645Z,37.81
2022-07-28T11:43:45.729Z,36.94
2022-07-28T11:46:40.004Z,36.66
2022-07-28T11:49:26.282Z,36.73
2022-07-28T11:52:21.233Z,36.82
2022-07-28T11:54:54.257Z,37.01
2022-07-28T11:57:26.256Z,36.96
2022-07-28T12:00:13.317Z,37.05
2022-07-28T12:02:45.892Z,37.48
2022-07-28T12:05:15.775Z,38.01
2022-07-28T12:07:48.195Z,38.04
2022-07-28T12:10:53.833Z,38.04
2022-07-28T12:13:29.536Z,38.48
2022-07-28T12:16:12.730Z,38.57
2022-07-28T12:18:43.115Z,38.86
2022-07-28T12:21:12.394Z,39.22
2022-07-28T12:23:46.241Z,39.09
2022-07-28T12:26:40.688Z,38.74
2022-07-28T12:29:15.995Z,38.46
2022-07-28T12:31:59.526Z,38.25
2022-07-28T12:34:30.709Z,38.29
2022-07-28T12:37:02.249Z,38.78
2022-07-28T12:39:32.620Z,39.16
2022-07-28T12:42:04.883Z,38.86
2022-07-28T12:44:38.142Z,38.15
2022-07-28T12:47:09.880Z,37.47
2022-07-28T12:49:57.834Z,37.76
2022-07-28T12:52:29.311Z,37.16
2022-07-28T12:54:59.528Z,35.70
2022-07-28T12:57:51.405Z,35.54
2022-07-28T13:00:27.736Z,35.02
2022-07-28T13:02:58.373Z,34.74
2022-07-28T13:05:34.965Z,35.08
2022-07-28T13:08:04.971Z,34.23
2022-07-28T13:10:34.956Z,34.28
2022-07-28T13:13:09.967Z,35.60
2022-07-28T13:15:40.294Z,36.25
2022-07-28T13:18:08.996Z,36.12
2022-07-28T13:20:52.335Z,33.72
2022-07-28T13:23:24.288Z,34.23
2022-07-28T13:26:00.798Z,33.17
2022-07-28T13:28:30.659Z,32.27
2022-07-28T13:30:59.892Z,33.36
2022-07-28T13:33:29.044Z,33.84
2022-07-28T13:36:08.553Z,33.22
2022-07-28T13:38:38.563Z,32.52
2022-07-28T13:41:08.557Z,31.19
2022-07-28T13:43:50.725Z,30.88
2022-07-28T13:46:20.567Z,30.78
2022-07-28T13:48:58.160Z,30.82
2022-07-28T13:51:30.517Z,31.27
2022-07-28T13:54:03.254Z,32.62
2022-07-28T13:56:36.784Z,32.55
2022-07-28T13:59:07.274Z,32.48
2022-07-28T14:01:37.724Z,32.28
2022-07-28T14:04:06.239Z,31.86
2022-07-28T14:06:51.003Z,30.64
2022-07-28T14:09:21.348Z,30.05
2022-07-28T14:11:53.619Z,29.61
2022-07-28T14:14:25.462Z,28.59
2022-07-28T14:16:55.565Z,28.36
2022-07-28T14:19:38.230Z,28.09
2022-07-28T14:25:06.359Z,26.87
2022-07-28T14:27:43.512Z,26.58
2022-07-28T14:30:17.387Z,26.62
2022-07-28T14:32:46.646Z,26.85
2022-07-28T14:38:49.859Z,26.39
2022-07-28T14:40:50.934Z,25.96
2022-07-28T14:43:22.297Z,25.51
2022-07-28T14:46:14.853Z,24.95
2022-07-28T14:48:45.007Z,24.82
2022-07-28T14:51:15.146Z,24.37
2022-07-28T14:53:51.584Z,24.31
2022-07-28T14:56:21.284Z,24.10
2022-07-28T14:58:50.319Z,25.18
2022-07-28T15:01:18.646Z,25.76
2022-07-28T15:03:49.619Z,25.70
2022-07-28T15:06:30.951Z,26.25
2022-07-28T15:09:03.193Z,26.27
2022-07-28T15:11:35.661Z,26.46
2022-07-28T15:14:04.616Z,27.05
2022-07-28T15:16:33.182Z,26.22
2022-07-28T15:19:01.951Z,24.84
2022-07-28T15:21:35.910Z,23.98
2022-07-28T15:24:08.690Z,24.14
2022-07-28T15:26:37.605Z,22.86
2022-07-28T15:29:09.242Z,23.11
2022-07-28T15:31:37.989Z,24.36
2022-07-28T15:34:08.603Z,24.41
2022-07-28T15:36:38.826Z,25.54
2022-07-28T15:39:14.604Z,26.89
2022-07-28T15:41:43.706Z,28.42
2022-07-28T15:44:25.830Z,28.24
2022-07-28T15:46:55.199Z,27.68
2022-07-28T15:49:25.500Z,27.06
2022-07-28T15:52:01.015Z,26.73
2022-07-28T15:54:32.825Z,25.69
2022-07-28T15:57:01.032Z,24.75
2022-07-28T15:59:48.702Z,24.50
2022-07-28T16:02:19.027Z,23.84
2022-07-28T16:04:53.480Z,23.70
2022-07-28T16:07:25.202Z,23.77
2022-07-28T16:10:00.471Z,23.75
2022-07-28T16:12:33.562Z,23.03
2022-07-28T16:15:04.259Z,22.97
2022-07-28T16:17:38.835Z,23.16
2022-07-28T16:20:10.435Z,22.82
2022-07-28T16:22:43.206Z,22.83
2022-07-28T16:25:16.941Z,22.38
2022-07-28T16:27:47.878Z,22.51
2022-07-28T16:30:17.343Z,22.82
2022-07-28T16:32:45.858Z,22.87
2022-07-28T16:35:15.901Z,23.91
2022-07-28T16:37:44.234Z,25.04
2022-07-28T16:40:23.041Z,26.48
2022-07-28T16:42:53.437Z,28.14
2022-07-28T16:45:22.020Z,29.01
2022-07-28T16:47:50.471Z,30.33
2022-07-28T16:50:19.093Z,30.66
2022-07-28T16:52:49.789Z,31.24
2022-07-28T16:55:23.409Z,31.69
2022-07-28T16:57:53.527Z,30.93
2022-07-28T17:00:25.749Z,30.81
2022-07-28T17:02:54.220Z,31.07
2022-07-28T17:05:22.974Z,30.96
2022-07-28T17:07:51.409Z,30.85
2022-07-28T17:10:27.164Z,31.60
2022-07-28T17:12:56.602Z,31.78
2022-07-28T17:15:24.968Z,31.94
2022-07-28T17:17:53.504Z,32.30
2022-07-28T17:20:22.180Z,32.78
2022-07-28T17:22:50.458Z,32.83
2022-07-28T17:28:08.807Z,33.63
2022-07-28T17:30:37.576Z,33.69
2022-07-28T17:33:08.755Z,33.95
2022-07-28T17:38:29.608Z,34.24
2022-07-28T17:41:04.306Z,34.41
2022-07-28T17:43:35.050Z,34.42
2022-07-28T17:46:08.438Z,34.51
2022-07-28T17:48:39.340Z,34.68
2022-07-28T17:51:07.863Z,34.72
2022-07-28T17:53:38.965Z,35.13
2022-07-28T17:56:08.884Z,35.13
2022-07-28T17:58:39.839Z,35.22
2022-07-28T18:01:12.335Z,35.23
2022-07-28T18:03:56.976Z,36.00
2022-07-28T18:06:30.935Z,35.85
2022-07-28T18:09:06.057Z,35.13
2022-07-28T18:11:37.723Z,35.29
2022-07-28T18:14:26.690Z,35.42
2022-07-28T18:16:57.260Z,35.67
2022-07-28T18:19:25.622Z,36.68
2022-07-28T18:21:53.886Z,36.92
2022-07-28T18:24:23.749Z,36.70
2022-07-28T18:26:55.570Z,36.44
2022-07-28T18:29:26.446Z,35.87
2022-07-28T18:32:09.736Z,35.35
2022-07-28T18:34:39.749Z,34.52
2022-07-28T18:37:08.604Z,33.99
2022-07-28T18:39:38.226Z,33.78
2022-07-28T18:42:07.351Z,33.61
2022-07-28T18:44:37.382Z,33.56
2022-07-28T18:47:07.146Z,33.17
2022-07-28T18:49:37.927Z,32.82
2022-07-28T18:52:07.648Z,34.01
2022-07-28T18:54:42.278Z,34.68
2022-07-28T18:57:15.748Z,35.71
2022-07-28T18:59:51.652Z,36.81
2022-07-28T19:02:20.549Z,37.70
2022-07-28T19:04:51.677Z,38.48
2022-07-28T19:07:20.198Z,39.30
2022-07-28T19:09:48.490Z,39.82
2022-07-28T19:12:18.225Z,40.54
2022-07-28T19:14:49.266Z,40.75
2022-07-28T19:17:26.049Z,40.94
2022-07-28T19:19:56.316Z,41.12
2022-07-28T19:22:27.122Z,41.26
2022-07-28T19:24:55.748Z,41.52
2022-07-28T19:27:24.401Z,41.68
2022-07-28T19:29:54.907Z,41.73
2022-07-28T19:32:24.819Z,42.33
2022-07-28T19:34:53.187Z,42.49
2022-07-28T19:37:23.228Z,42.33
2022-07-28T19:39:51.530Z,42.80
2022-07-28T19:42:19.828Z,42.68
2022-07-28T19:44:51.023Z,42.92
2022-07-28T19:47:25.623Z,42.40
2022-07-28T19:49:53.768Z,43.14
2022-07-28T19:52:39.975Z,43.53
2022-07-28T19:55:21.916Z,43.72
2022-07-28T19:57:55.130Z,44.02
2022-07-28T20:00:24.020Z,44.31
2022-07-28T20:02:53.962Z,44.36
2022-07-28T20:05:22.521Z,44.97
2022-07-28T20:07:51.411Z,45.39
2022-07-28T20:10:20.466Z,45.93
2022-07-28T20:12:48.783Z,46.10
2022-07-28T20:15:17.306Z,46.38
2022-07-28T20:17:46.123Z,46.56
2022-07-28T20:20:16.492Z,46.70
2022-07-28T20:22:45.795Z,46.94
2022-07-28T20:25:14.959Z,46.75
2022-07-28T20:27:44.444Z,47.17
2022-07-28T20:30:14.638Z,47.14
2022-07-28T20:32:44.334Z,47.00
2022-07-28T20:35:13.107Z,46.98
2022-07-28T20:37:43.211Z,47.35
2022-07-28T20:40:12.515Z,47.26
2022-07-28T20:42:41.017Z,47.43
2022-07-28T20:45:10.171Z,47.42
2022-07-28T20:47:39.235Z,46.94
2022-07-28T20:50:08.613Z,47.49
2022-07-28T20:52:36.930Z,47.35
2022-07-28T20:55:07.881Z,47.30
2022-07-28T20:57:36.914Z,47.54
2022-07-28T21:00:09.463Z,47.54
2022-07-28T21:02:39.149Z,47.46
2022-07-28T21:05:08.497Z,47.46
2022-07-28T21:08:04.778Z,47.29
2022-07-28T21:10:36.557Z,47.34
2022-07-28T21:13:04.995Z,47.72
2022-07-28T21:15:40.239Z,47.50
2022-07-28T21:18:09.844Z,47.59
2022-07-28T21:20:39.987Z,47.54
2022-07-28T21:23:14.540Z,47.64
2022-07-28T21:25:47.518Z,47.34
2022-07-28T21:28:30.006Z,47.15
2022-07-28T21:31:01.596Z,47.17
2022-07-28T21:33:30.792Z,47.49
2022-07-28T21:35:59.696Z,47.24
2022-07-28T21:38:29.628Z,46.99
2022-07-28T21:43:47.325Z,47.13
2022-07-28T21:46:19.061Z,47.05
2022-07-28T21:48:48.201Z,46.98
2022-07-28T21:51:26.325Z,46.94
2022-07-28T21:53:56.289Z,47.18
2022-07-28T21:56:27.519Z,47.03
2022-07-28T21:58:56.154Z,47.01
2022-07-28T22:01:27.052Z,47.05
2022-07-28T22:03:56.378Z,46.95
2022-07-28T22:06:25.194Z,47.02
2022-07-28T22:08:54.918Z,46.85
2022-07-28T22:11:23.695Z,47.21
2022-07-28T22:13:54.847Z,47.23
2022-07-28T22:16:23.205Z,47.14
2022-07-28T22:18:51.979Z,47.18
2022-07-28T22:21:21.332Z,47.37
2022-07-28T22:23:52.296Z,47.55
2022-07-28T22:26:20.824Z,47.54
2022-07-28T22:28:49.101Z,47.43
2022-07-28T22:31:20.334Z,47.37
2022-07-28T22:33:48.787Z,47.82
2022-07-28T22:36:17.619Z,47.87
2022-07-28T22:38:46.530Z,47.72
2022-07-28T22:41:15.032Z,47.90
2022-07-28T22:43:44.562Z,47.82
2022-07-28T22:46:15.228Z,47.96
2022-07-28T22:48:48.659Z,48.50
2022-07-28T22:51:17.929Z,48.37
2022-07-28T22:53:47.911Z,48.21
2022-07-28T22:56:26.303Z,48.27
2022-07-28T22:59:04.045Z,48.45
2022-07-28T23:01:32.693Z,48.54
2022-07-28T23:04:04.176Z,48.60
2022-07-28T23:06:36.669Z,48.68
2022-07-28T23:09:05.597Z,48.88
2022-07-28T23:11:34.258Z,48.94
2022-07-28T23:14:02.622Z,48.94
2022-07-28T23:16:31.726Z,48.76
2022-07-28T23:19:00.843Z,48.55
2022-07-28T23:21:30.816Z,49.13
2022-07-28T23:23:59.548Z,48.85
2022-07-28T23:26:28.100Z,49.10
2022-07-28T23:28:57.089Z,49.40
2022-07-28T23:31:25.815Z,49.36
2022-07-28T23:33:57.530Z,49.31
2022-07-28T23:36:27.867Z,49.53
2022-07-28T23:39:00.467Z,49.59
2022-07-28T23:41:29.034Z,49.56
2022-07-28T23:43:58.224Z,49.60
2022-07-28T23:46:27.078Z,49.66
2022-07-28T23:48:55.662Z,49.69
2022-07-28T23:51:41.140Z,49.79
2022-07-28T23:54:14.546Z,49.92
2022-07-28T23:56:43.486Z,49.70
2022-07-28T23:59:14.295Z,49.77
